sensor_id;sensor_type;location;lat;lon;timestamp;pressure;altitude;pressure_sealevel;temperature;humidity
62544;BME280;48597;49.030;1.822;2023-07-28T00:01:59;100060.22;;;23.74;50.94
62544;BME280;48597;49.030;1.822;2023-07-28T00:04:24;100067.25;;;23.73;51.03
62544;BME280;48597;49.030;1.822;2023-07-28T00:06:50;100067.25;;;23.73;50.93
62544;BME280;48597;49.030;1.822;2023-07-28T00:09:15;100065.19;;;23.73;51.04
62544;BME280;48597;49.030;1.822;2023-07-28T00:11:40;100063.09;;;23.74;50.93
62544;BME280;48597;49.030;1.822;2023-07-28T00:14:06;100066.78;;;23.74;50.84
62544;BME280;48597;49.030;1.822;2023-07-28T00:16:31;100065.97;;;23.74;51.07
62544;BME280;48597;49.030;1.822;2023-07-28T00:18:57;100057.84;;;23.72;50.86
62544;BME280;48597;49.030;1.822;2023-07-28T00:21:22;100058.63;;;23.73;51.06
62544;BME280;48597;49.030;1.822;2023-07-28T00:23:47;100058.63;;;23.73;50.98
62544;BME280;48597;49.030;1.822;2023-07-28T00:26:13;100061.50;;;23.73;50.91
62544;BME280;48597;49.030;1.822;2023-07-28T00:28:38;100054.97;;;23.72;50.98
62544;BME280;48597;49.030;1.822;2023-07-28T00:31:04;100060.72;;;23.72;51.09
62544;BME280;48597;49.030;1.822;2023-07-28T00:33:29;100060.72;;;23.72;51.10
62544;BME280;48597;49.030;1.822;2023-07-28T00:35:54;100067.25;;;23.73;50.91
62544;BME280;48597;49.030;1.822;2023-07-28T00:38:20;100066.47;;;23.72;50.64
62544;BME280;48597;49.030;1.822;2023-07-28T00:40:45;100072.22;;;23.72;50.87
62544;BME280;48597;49.030;1.822;2023-07-28T00:43:11;100070.16;;;23.73;50.86
62544;BME280;48597;49.030;1.822;2023-07-28T00:45:36;100073.81;;;23.73;51.00
62544;BME280;48597;49.030;1.822;2023-07-28T00:48:02;100067.75;;;23.71;50.88
62544;BME280;48597;49.030;1.822;2023-07-28T00:50:27;100061.50;;;23.73;50.93
62544;BME280;48597;49.030;1.822;2023-07-28T00:52:55;100057.84;;;23.72;50.99
62544;BME280;48597;49.030;1.822;2023-07-28T00:55:20;100054.16;;;23.72;50.98
62544;BME280;48597;49.030;1.822;2023-07-28T00:57:47;100063.59;;;23.72;50.88
62544;BME280;48597;49.030;1.822;2023-07-28T01:00:12;100052.09;;;23.72;50.95
62544;BME280;48597;49.030;1.822;2023-07-28T01:02:38;100048.41;;;23.72;50.83
62544;BME280;48597;49.030;1.822;2023-07-28T01:05:04;100053.38;;;23.71;50.75
62544;BME280;48597;49.030;1.822;2023-07-28T01:07:38;100049.19;;;23.72;50.87
62544;BME280;48597;49.030;1.822;2023-07-28T01:10:12;100052.09;;;23.72;50.86
62544;BME280;48597;49.030;1.822;2023-07-28T01:12:40;100040.56;;;23.72;50.96
62544;BME280;48597;49.030;1.822;2023-07-28T01:15:06;100049.19;;;23.72;50.87
62544;BME280;48597;49.030;1.822;2023-07-28T01:17:32;100046.31;;;23.72;50.87
62544;BME280;48597;49.030;1.822;2023-07-28T01:19:57;100052.09;;;23.72;50.56
62544;BME280;48597;49.030;1.822;2023-07-28T01:22:58;100048.41;;;23.72;50.96
62544;BME280;48597;49.030;1.822;2023-07-28T01:28:07;100036.09;;;23.71;50.87
62544;BME280;48597;49.030;1.822;2023-07-28T01:30:32;100039.78;;;23.72;50.71
62544;BME280;48597;49.030;1.822;2023-07-28T01:32:58;100039.78;;;23.72;50.80
62544;BME280;48597;49.030;1.822;2023-07-28T01:35:25;100040.56;;;23.72;50.69
62544;BME280;48597;49.030;1.822;2023-07-28T01:37:51;100041.88;;;23.71;50.78
62544;BME280;48597;49.030;1.822;2023-07-28T01:40:17;100041.38;;;23.73;50.67
62544;BME280;48597;49.030;1.822;2023-07-28T01:42:43;100047.63;;;23.71;50.73
62544;BME280;48597;49.030;1.822;2023-07-28T01:45:08;100047.13;;;23.73;50.68
62544;BME280;48597;49.030;1.822;2023-07-28T01:47:34;100057.03;;;23.72;50.88
62544;BME280;48597;49.030;1.822;2023-07-28T01:49:59;100054.16;;;23.72;50.80
62544;BME280;48597;49.030;1.822;2023-07-28T01:52:25;100048.41;;;23.72;50.67
62544;BME280;48597;49.030;1.822;2023-07-28T01:54:50;100053.38;;;23.71;50.80
62544;BME280;48597;49.030;1.822;2023-07-28T01:57:15;100041.06;;;23.71;50.62
62544;BME280;48597;49.030;1.822;2023-07-28T01:59:41;100044.75;;;23.71;50.75
62544;BME280;48597;49.030;1.822;2023-07-28T02:02:06;100042.66;;;23.72;50.67
62544;BME280;48597;49.030;1.822;2023-07-28T02:04:32;100041.88;;;23.71;50.66
62544;BME280;48597;49.030;1.822;2023-07-28T02:06:57;100038.19;;;23.71;50.76
62544;BME280;48597;49.030;1.822;2023-07-28T02:09:23;100036.09;;;23.71;50.79
62544;BME280;48597;49.030;1.822;2023-07-28T02:11:48;100036.09;;;23.71;50.85
62544;BME280;48597;49.030;1.822;2023-07-28T02:14:14;100034.03;;;23.72;50.72
62544;BME280;48597;49.030;1.822;2023-07-28T02:16:39;100030.34;;;23.71;50.71
62544;BME280;48597;49.030;1.822;2023-07-28T02:19:04;100025.88;;;23.70;50.77
62544;BME280;48597;49.030;1.822;2023-07-28T02:21:30;100030.34;;;23.71;50.59
62544;BME280;48597;49.030;1.822;2023-07-28T02:23:55;100023.81;;;23.71;50.75
62544;BME280;48597;49.030;1.822;2023-07-28T02:26:21;100025.38;;;23.72;50.63
62544;BME280;48597;49.030;1.822;2023-07-28T02:28:46;100027.47;;;23.71;50.68
62544;BME280;48597;49.030;1.822;2023-07-28T02:31:11;100021.72;;;23.71;50.69
62544;BME280;48597;49.030;1.822;2023-07-28T02:33:37;100015.16;;;23.71;50.60
62544;BME280;48597;49.030;1.822;2023-07-28T02:36:05;100020.44;;;23.72;50.61
62544;BME280;48597;49.030;1.822;2023-07-28T02:38:31;100020.94;;;23.71;50.70
62544;BME280;48597;49.030;1.822;2023-07-28T02:40:56;100023.00;;;23.70;50.68
62544;BME280;48597;49.030;1.822;2023-07-28T02:43:21;100021.72;;;23.71;50.81
62544;BME280;48597;49.030;1.822;2023-07-28T02:45:48;100024.59;;;23.71;50.73
62544;BME280;48597;49.030;1.822;2023-07-28T02:48:14;100020.94;;;23.71;50.73
62544;BME280;48597;49.030;1.822;2023-07-28T02:50:45;100013.88;;;23.72;50.41
62544;BME280;48597;49.030;1.822;2023-07-28T02:53:10;100020.94;;;23.71;50.68
62544;BME280;48597;49.030;1.822;2023-07-28T02:55:43;100027.47;;;23.71;50.61
62544;BME280;48597;49.030;1.822;2023-07-28T02:58:09;100025.09;;;23.70;50.70
62544;BME280;48597;49.030;1.822;2023-07-28T03:00:42;100023.81;;;23.71;50.69
62544;BME280;48597;49.030;1.822;2023-07-28T03:03:09;100025.88;;;23.70;50.64
62544;BME280;48597;49.030;1.822;2023-07-28T03:05:39;100031.63;;;23.70;50.64
62544;BME280;48597;49.030;1.822;2023-07-28T03:08:05;100031.63;;;23.70;50.80
62544;BME280;48597;49.030;1.822;2023-07-28T03:10:31;100023.00;;;23.70;50.63
62544;BME280;48597;49.030;1.822;2023-07-28T03:12:56;100026.69;;;23.71;50.63
62544;BME280;48597;49.030;1.822;2023-07-28T03:15:22;100020.94;;;23.71;50.52
62544;BME280;48597;49.030;1.822;2023-07-28T03:17:51;100029.56;;;23.71;50.44
62544;BME280;48597;49.030;1.822;2023-07-28T03:20:16;100023.81;;;23.71;50.63
62544;BME280;48597;49.030;1.822;2023-07-28T03:22:42;100020.94;;;23.71;50.68
62544;BME280;48597;49.030;1.822;2023-07-28T03:25:08;100018.03;;;23.71;50.63
62544;BME280;48597;49.030;1.822;2023-07-28T03:27:33;100017.25;;;23.70;50.58
62544;BME280;48597;49.030;1.822;2023-07-28T03:29:59;100019.34;;;23.70;50.53
62544;BME280;48597;49.030;1.822;2023-07-28T03:32:25;100016.47;;;23.70;50.54
62544;BME280;48597;49.030;1.822;2023-07-28T03:34:50;100009.91;;;23.69;50.50
62544;BME280;48597;49.030;1.822;2023-07-28T03:37:15;100012.28;;;23.71;50.51
62544;BME280;48597;49.030;1.822;2023-07-28T03:39:41;100002.88;;;23.70;50.47
62544;BME280;48597;49.030;1.822;2023-07-28T03:42:07;100015.16;;;23.71;50.46
62544;BME280;48597;49.030;1.822;2023-07-28T03:44:32;100008.63;;;23.70;50.65
62544;BME280;48597;49.030;1.822;2023-07-28T03:46:58;100009.91;;;23.69;50.61
62544;BME280;48597;49.030;1.822;2023-07-28T03:49:24;100002.06;;;23.70;50.49
62544;BME280;48597;49.030;1.822;2023-07-28T03:51:49;99998.69;;;23.71;50.76
62544;BME280;48597;49.030;1.822;2023-07-28T03:54:15;100009.91;;;23.69;50.65
62544;BME280;48597;49.030;1.822;2023-07-28T03:56:41;100002.06;;;23.70;50.55
62544;BME280;48597;49.030;1.822;2023-07-28T03:59:06;100014.88;;;23.69;50.44
62544;BME280;48597;49.030;1.822;2023-07-28T04:01:32;100019.34;;;23.70;50.54
62544;BME280;48597;49.030;1.822;2023-07-28T04:03:57;100014.38;;;23.70;50.58
62544;BME280;48597;49.030;1.822;2023-07-28T04:06:47;100020.13;;;23.70;50.54
62544;BME280;48597;49.030;1.822;2023-07-28T04:09:16;100025.09;;;23.70;50.47
62544;BME280;48597;49.030;1.822;2023-07-28T04:11:41;100016.47;;;23.70;50.53
62544;BME280;48597;49.030;1.822;2023-07-28T04:14:07;100027.19;;;23.69;50.53
62544;BME280;48597;49.030;1.822;2023-07-28T04:16:32;100015.66;;;23.69;50.60
62544;BME280;48597;49.030;1.822;2023-07-28T04:18:58;100020.13;;;23.70;50.49
62544;BME280;48597;49.030;1.822;2023-07-28T04:21:24;100021.41;;;23.69;50.60
62544;BME280;48597;49.030;1.822;2023-07-28T04:23:49;100021.41;;;23.69;50.64
62544;BME280;48597;49.030;1.822;2023-07-28T04:26:16;100023.00;;;23.70;50.65
62544;BME280;48597;49.030;1.822;2023-07-28T04:28:41;100023.81;;;23.71;50.70
62544;BME280;48597;49.030;1.822;2023-07-28T04:31:07;100023.81;;;23.71;50.89
62544;BME280;48597;49.030;1.822;2023-07-28T04:33:32;100023.31;;;23.72;50.98
62544;BME280;48597;49.030;1.822;2023-07-28T04:35:57;100024.59;;;23.71;50.91
62544;BME280;48597;49.030;1.822;2023-07-28T04:38:23;100028.28;;;23.72;50.98
62544;BME280;48597;49.030;1.822;2023-07-28T04:40:48;100029.06;;;23.72;51.11
62544;BME280;48597;49.030;1.822;2023-07-28T04:43:14;100029.84;;;23.73;51.06
62544;BME280;48597;49.030;1.822;2023-07-28T04:45:39;100026.19;;;23.72;51.03
62544;BME280;48597;49.030;1.822;2023-07-28T04:48:05;100024.91;;;23.73;51.04
62544;BME280;48597;49.030;1.822;2023-07-28T04:50:30;100028.56;;;23.74;50.99
62544;BME280;48597;49.030;1.822;2023-07-28T04:52:57;100031.44;;;23.74;51.18
62544;BME280;48597;49.030;1.822;2023-07-28T04:55:22;100029.38;;;23.74;51.17
62544;BME280;48597;49.030;1.822;2023-07-28T04:57:48;100031.44;;;23.74;51.18
62544;BME280;48597;49.030;1.822;2023-07-28T05:00:13;100027.28;;;23.75;51.24
62544;BME280;48597;49.030;1.822;2023-07-28T05:02:39;100035.38;;;23.76;51.27
62544;BME280;48597;49.030;1.822;2023-07-28T05:05:04;100030.16;;;23.75;51.10
62544;BME280;48597;49.030;1.822;2023-07-28T05:07:30;100028.84;;;23.76;51.10
62544;BME280;48597;49.030;1.822;2023-07-28T05:09:55;100033.31;;;23.77;51.08
62544;BME280;48597;49.030;1.822;2023-07-28T05:12:21;100036.97;;;23.77;51.14
62544;BME280;48597;49.030;1.822;2023-07-28T05:14:46;100036.19;;;23.77;51.13
62544;BME280;48597;49.030;1.822;2023-07-28T05:17:12;100035.38;;;23.76;51.05
62544;BME280;48597;49.030;1.822;2023-07-28T05:19:37;100032.00;;;23.78;51.24
62544;BME280;48597;49.030;1.822;2023-07-28T05:22:03;100035.69;;;23.78;51.11
62544;BME280;48597;49.030;1.822;2023-07-28T05:24:28;100037.28;;;23.79;51.17
62544;BME280;48597;49.030;1.822;2023-07-28T05:26:54;100030.72;;;23.79;51.16
62544;BME280;48597;49.030;1.822;2023-07-28T05:29:19;100036.47;;;23.79;51.28
62544;BME280;48597;49.030;1.822;2023-07-28T05:31:45;100034.41;;;23.79;51.20
62544;BME280;48597;49.030;1.822;2023-07-28T05:34:10;100040.94;;;23.80;51.17
62544;BME280;48597;49.030;1.822;2023-07-28T05:36:37;100040.44;;;23.81;51.12
62544;BME280;48597;49.030;1.822;2023-07-28T05:39:03;100040.44;;;23.81;51.07
62544;BME280;48597;49.030;1.822;2023-07-28T05:41:28;100031.03;;;23.81;51.26
62544;BME280;48597;49.030;1.822;2023-07-28T05:43:54;100041.25;;;23.82;51.07
62544;BME280;48597;49.030;1.822;2023-07-28T05:46:19;100038.38;;;23.82;50.96
62544;BME280;48597;49.030;1.822;2023-07-28T05:48:44;100043.34;;;23.81;51.01
62544;BME280;48597;49.030;1.822;2023-07-28T05:51:10;100044.91;;;23.82;50.92
62544;BME280;48597;49.030;1.822;2023-07-28T05:53:35;100045.72;;;23.83;51.11
62544;BME280;48597;49.030;1.822;2023-07-28T05:56:01;100044.91;;;23.82;50.90
62544;BME280;48597;49.030;1.822;2023-07-28T05:58:26;100043.63;;;23.83;50.93
62544;BME280;48597;49.030;1.822;2023-07-28T06:00:52;100040.75;;;23.83;51.32
62544;BME280;48597;49.030;1.822;2023-07-28T06:03:17;100046.50;;;23.83;51.72
62544;BME280;48597;49.030;1.822;2023-07-28T06:05:43;100055.16;;;23.83;51.81
62544;BME280;48597;49.030;1.822;2023-07-28T06:08:09;100044.91;;;23.82;51.58
62544;BME280;48597;49.030;1.822;2023-07-28T06:10:34;100044.91;;;23.82;51.49
62544;BME280;48597;49.030;1.822;2023-07-28T06:13:00;100047.78;;;23.82;51.44
62544;BME280;48597;49.030;1.822;2023-07-28T06:15:26;100052.25;;;23.83;51.40
62544;BME280;48597;49.030;1.822;2023-07-28T06:17:51;100055.16;;;23.83;51.33
62544;BME280;48597;49.030;1.822;2023-07-28T06:20:18;100059.31;;;23.82;51.21
62544;BME280;48597;49.030;1.822;2023-07-28T06:22:44;100060.91;;;23.83;51.31
62544;BME280;48597;49.030;1.822;2023-07-28T06:25:09;100063.78;;;23.83;51.16
62544;BME280;48597;49.030;1.822;2023-07-28T06:27:35;100057.22;;;23.83;51.19
62544;BME280;48597;49.030;1.822;2023-07-28T06:30:10;100053.56;;;23.82;51.18
62544;BME280;48597;49.030;1.822;2023-07-28T06:32:36;100058.50;;;23.82;51.20
62544;BME280;48597;49.030;1.822;2023-07-28T06:35:01;100054.34;;;23.83;51.11
62544;BME280;48597;49.030;1.822;2023-07-28T06:37:28;100059.31;;;23.82;51.25
62544;BME280;48597;49.030;1.822;2023-07-28T06:39:53;100060.91;;;23.83;51.53
62544;BME280;48597;49.030;1.822;2023-07-28T06:42:21;100057.72;;;23.81;51.33
62544;BME280;48597;49.030;1.822;2023-07-28T06:44:49;100063.47;;;23.81;51.39
62544;BME280;48597;49.030;1.822;2023-07-28T06:47:15;100065.06;;;23.82;51.24
62544;BME280;48597;49.030;1.822;2023-07-28T06:49:41;100065.84;;;23.83;51.40
62544;BME280;48597;49.030;1.822;2023-07-28T06:52:06;100074.50;;;23.83;51.19
62544;BME280;48597;49.030;1.822;2023-07-28T06:54:32;100081.03;;;23.83;51.23
62544;BME280;48597;49.030;1.822;2023-07-28T06:56:57;100075.28;;;23.83;51.26
62544;BME280;48597;49.030;1.822;2023-07-28T06:59:22;100085.50;;;23.84;51.19
62544;BME280;48597;49.030;1.822;2023-07-28T07:01:48;100074.50;;;23.83;51.04
62544;BME280;48597;49.030;1.822;2023-07-28T07:04:13;100080.25;;;23.83;51.03
62544;BME280;48597;49.030;1.822;2023-07-28T07:06:38;100073.69;;;23.82;51.42
62544;BME280;48597;49.030;1.822;2023-07-28T07:09:04;100086.00;;;23.83;51.07
62544;BME280;48597;49.030;1.822;2023-07-28T07:11:30;100083.13;;;23.83;51.18
62544;BME280;48597;49.030;1.822;2023-07-28T07:13:56;100078.16;;;23.83;51.01
62544;BME280;48597;49.030;1.822;2023-07-28T07:16:23;100084.72;;;23.84;51.24
62544;BME280;48597;49.030;1.822;2023-07-28T07:18:48;100087.59;;;23.84;51.10
62544;BME280;48597;49.030;1.822;2023-07-28T07:21:15;100094.16;;;23.84;51.13
62544;BME280;48597;49.030;1.822;2023-07-28T07:23:41;100093.34;;;23.84;51.02
62544;BME280;48597;49.030;1.822;2023-07-28T07:26:07;100094.16;;;23.84;51.22
62544;BME280;48597;49.030;1.822;2023-07-28T07:28:32;100093.34;;;23.84;51.14
62544;BME280;48597;49.030;1.822;2023-07-28T07:31:00;100094.94;;;23.85;50.98
62544;BME280;48597;49.030;1.822;2023-07-28T07:33:25;100094.94;;;23.85;50.97
62544;BME280;48597;49.030;1.822;2023-07-28T07:35:50;100098.59;;;23.85;51.05
62544;BME280;48597;49.030;1.822;2023-07-28T07:38:16;100099.91;;;23.84;51.18
62544;BME280;48597;49.030;1.822;2023-07-28T07:40:41;100098.59;;;23.85;51.00
62544;BME280;48597;49.030;1.822;2023-07-28T07:43:07;100094.16;;;23.84;51.17
62544;BME280;48597;49.030;1.822;2023-07-28T07:45:32;100099.41;;;23.86;51.12
62544;BME280;48597;49.030;1.822;2023-07-28T07:48:00;100096.53;;;23.86;51.04
62544;BME280;48597;49.030;1.822;2023-07-28T07:50:26;100107.25;;;23.85;51.12
62544;BME280;48597;49.030;1.822;2023-07-28T07:52:51;100107.25;;;23.85;51.13
62544;BME280;48597;49.030;1.822;2023-07-28T07:55:17;100108.03;;;23.86;51.15
62544;BME280;48597;49.030;1.822;2023-07-28T07:57:42;100105.97;;;23.86;51.13
62544;BME280;48597;49.030;1.822;2023-07-28T08:00:09;100103.88;;;23.87;51.13
62544;BME280;48597;49.030;1.822;2023-07-28T08:02:35;100106.75;;;23.87;51.31
62544;BME280;48597;49.030;1.822;2023-07-28T08:05:00;100113.31;;;23.88;51.07
62544;BME280;48597;49.030;1.822;2023-07-28T08:07:26;100108.84;;;23.86;51.14
62544;BME280;48597;49.030;1.822;2023-07-28T08:09:51;100108.84;;;23.86;51.44
62544;BME280;48597;49.030;1.822;2023-07-28T08:12:17;100109.13;;;23.89;51.58
62544;BME280;48597;49.030;1.822;2023-07-28T08:14:42;100101.78;;;23.88;51.64
62544;BME280;48597;49.030;1.822;2023-07-28T08:17:09;100112.00;;;23.89;51.59
62544;BME280;48597;49.030;1.822;2023-07-28T08:19:34;100099.72;;;23.88;51.27
62544;BME280;48597;49.030;1.822;2023-07-28T08:22:01;100105.47;;;23.88;51.44
62544;BME280;48597;49.030;1.822;2023-07-28T08:24:29;100106.25;;;23.89;51.38
62544;BME280;48597;49.030;1.822;2023-07-28T08:26:54;100107.81;;;23.90;51.57
62544;BME280;48597;49.030;1.822;2023-07-28T08:29:19;100121.94;;;23.88;51.73
62544;BME280;48597;49.030;1.822;2023-07-28T08:31:45;100112.00;;;23.89;51.59
62544;BME280;48597;49.030;1.822;2023-07-28T08:34:10;100117.78;;;23.89;51.27
62544;BME280;48597;49.030;1.822;2023-07-28T08:36:36;100121.94;;;23.88;51.61
62544;BME280;48597;49.030;1.822;2023-07-28T08:39:02;100116.97;;;23.88;51.23
62544;BME280;48597;49.030;1.822;2023-07-28T08:41:27;100119.84;;;23.88;51.80
62544;BME280;48597;49.030;1.822;2023-07-28T08:43:53;100120.66;;;23.89;51.69
62544;BME280;48597;49.030;1.822;2023-07-28T08:46:19;100116.19;;;23.88;51.75
62544;BME280;48597;49.030;1.822;2023-07-28T08:48:45;100120.66;;;23.89;51.77
62544;BME280;48597;49.030;1.822;2023-07-28T08:51:11;100122.72;;;23.88;51.68
62544;BME280;48597;49.030;1.822;2023-07-28T08:53:37;100114.91;;;23.89;51.52
62544;BME280;48597;49.030;1.822;2023-07-28T08:56:03;100121.41;;;23.89;51.49
62544;BME280;48597;49.030;1.822;2023-07-28T08:58:29;100113.56;;;23.90;51.53
62544;BME280;48597;49.030;1.822;2023-07-28T09:00:55;100118.03;;;23.91;51.54
62544;BME280;48597;49.030;1.822;2023-07-28T09:03:21;100119.34;;;23.90;51.63
62544;BME280;48597;49.030;1.822;2023-07-28T09:05:48;100118.03;;;23.91;51.94
62544;BME280;48597;49.030;1.822;2023-07-28T09:08:14;100120.91;;;23.91;51.70
62544;BME280;48597;49.030;1.822;2023-07-28T09:10:43;100125.09;;;23.90;51.90
62544;BME280;48597;49.030;1.822;2023-07-28T09:13:13;100122.22;;;23.90;52.13
62544;BME280;48597;49.030;1.822;2023-07-28T09:15:39;100123.53;;;23.89;51.79
62544;BME280;48597;49.030;1.822;2023-07-28T09:18:07;100129.28;;;23.89;51.94
62544;BME280;48597;49.030;1.822;2023-07-28T09:20:37;100131.63;;;23.90;51.88
62544;BME280;48597;49.030;1.822;2023-07-28T09:23:04;100124.28;;;23.89;51.77
62544;BME280;48597;49.030;1.822;2023-07-28T09:25:31;100127.16;;;23.89;51.92
62544;BME280;48597;49.030;1.822;2023-07-28T09:27:57;100125.09;;;23.90;51.81
62544;BME280;48597;49.030;1.822;2023-07-28T09:30:24;100126.69;;;23.91;51.99
62544;BME280;48597;49.030;1.822;2023-07-28T09:32:51;100120.91;;;23.91;51.67
62544;BME280;48597;49.030;1.822;2023-07-28T09:35:17;100113.56;;;23.90;51.74
62544;BME280;48597;49.030;1.822;2023-07-28T09:37:45;100123.81;;;23.91;51.68
62544;BME280;48597;49.030;1.822;2023-07-28T09:40:14;100115.16;;;23.91;51.76
62544;BME280;48597;49.030;1.822;2023-07-28T09:42:44;100110.19;;;23.91;51.83
62544;BME280;48597;49.030;1.822;2023-07-28T09:45:14;100106.53;;;23.91;51.73
62544;BME280;48597;49.030;1.822;2023-07-28T09:47:40;100102.84;;;23.90;51.66
62544;BME280;48597;49.030;1.822;2023-07-28T09:50:08;100105.25;;;23.92;51.73
62544;BME280;48597;49.030;1.822;2023-07-28T09:52:38;100106.03;;;23.92;52.04
62544;BME280;48597;49.030;1.822;2023-07-28T09:55:08;100096.13;;;23.93;52.39
62544;BME280;48597;49.030;1.822;2023-07-28T09:57:55;100099.78;;;23.94;52.68
62544;BME280;48597;49.030;1.822;2023-07-28T10:00:22;100092.44;;;23.93;52.64
62544;BME280;48597;49.030;1.822;2023-07-28T10:02:48;100096.91;;;23.94;52.42
62544;BME280;48597;49.030;1.822;2023-07-28T10:05:14;100090.34;;;23.93;52.39
62544;BME280;48597;49.030;1.822;2023-07-28T10:07:42;100090.34;;;23.93;52.32
62544;BME280;48597;49.030;1.822;2023-07-28T10:10:10;100094.03;;;23.94;52.30
62544;BME280;48597;49.030;1.822;2023-07-28T10:12:48;100098.50;;;23.95;52.34
62544;BME280;48597;49.030;1.822;2023-07-28T10:15:17;100089.06;;;23.94;52.23
62544;BME280;48597;49.030;1.822;2023-07-28T10:17:44;100083.31;;;23.94;52.48
62544;BME280;48597;49.030;1.822;2023-07-28T10:20:29;100084.09;;;23.95;52.37
62544;BME280;48597;49.030;1.822;2023-07-28T10:23:22;100087.78;;;23.95;52.47
62544;BME280;48597;49.030;1.822;2023-07-28T10:25:58;100082.81;;;23.96;52.18
62544;BME280;48597;49.030;1.822;2023-07-28T10:28:28;100077.84;;;23.96;52.03
62544;BME280;48597;49.030;1.822;2023-07-28T10:30:56;100079.63;;;23.94;52.61
62544;BME280;48597;49.030;1.822;2023-07-28T10:33:35;100075.47;;;23.95;52.38
62544;BME280;48597;49.030;1.822;2023-07-28T10:39:00;100077.84;;;23.96;51.88
62544;BME280;48597;49.030;1.822;2023-07-28T10:41:26;100077.34;;;23.98;52.20
62544;BME280;48597;49.030;1.822;2023-07-28T10:43:51;100081.03;;;23.98;52.22
62544;BME280;48597;49.030;1.822;2023-07-28T10:46:19;100085.19;;;23.97;52.26
62544;BME280;48597;49.030;1.822;2023-07-28T10:48:47;100086.00;;;23.98;52.18
62544;BME280;48597;49.030;1.822;2023-07-28T10:51:24;100089.16;;;24.00;52.65
62544;BME280;48597;49.030;1.822;2023-07-28T10:53:59;100099.88;;;23.99;52.63
62544;BME280;48597;49.030;1.822;2023-07-28T10:56:26;100109.31;;;24.00;52.34
62544;BME280;48597;49.030;1.822;2023-07-28T10:59:01;100110.91;;;24.01;52.38
62544;BME280;48597;49.030;1.822;2023-07-28T11:01:33;100103.88;;;24.02;52.54
62544;BME280;48597;49.030;1.822;2023-07-28T11:06:46;100077.94;;;24.02;52.50
62544;BME280;48597;49.030;1.822;2023-07-28T11:09:16;100084.47;;;24.02;52.50
62544;BME280;48597;49.030;1.822;2023-07-28T11:11:42;100086.59;;;24.02;52.63
62544;BME280;48597;49.030;1.822;2023-07-28T11:14:08;100088.94;;;24.03;52.47
62544;BME280;48597;49.030;1.822;2023-07-28T11:16:40;100089.75;;;24.04;52.61
62544;BME280;48597;49.030;1.822;2023-07-28T11:19:13;100081.09;;;24.04;52.50
62544;BME280;48597;49.030;1.822;2023-07-28T11:21:44;100090.53;;;24.04;52.68
62544;BME280;48597;49.030;1.822;2023-07-28T11:24:10;100088.44;;;24.05;52.75
62544;BME280;48597;49.030;1.822;2023-07-28T11:26:37;100086.38;;;24.05;52.79
62544;BME280;48597;49.030;1.822;2023-07-28T11:29:03;100088.25;;;24.08;52.85
62544;BME280;48597;49.030;1.822;2023-07-28T11:31:29;100084.56;;;24.08;53.06
62544;BME280;48597;49.030;1.822;2023-07-28T11:33:55;100078.03;;;24.07;52.70
62544;BME280;48597;49.030;1.822;2023-07-28T11:36:28;100086.97;;;24.09;53.13
62544;BME280;48597;49.030;1.822;2023-07-28T11:38:56;100078.81;;;24.08;53.08
62544;BME280;48597;49.030;1.822;2023-07-28T11:41:22;100082.00;;;24.10;53.20
62544;BME280;48597;49.030;1.822;2023-07-28T11:43:50;100082.78;;;24.10;53.11
62544;BME280;48597;49.030;1.822;2023-07-28T11:46:38;100075.75;;;24.11;53.14
62544;BME280;48597;49.030;1.822;2023-07-28T11:49:14;100070.78;;;24.12;53.13
62544;BME280;48597;49.030;1.822;2023-07-28T11:51:43;100065.03;;;24.12;52.90
62544;BME280;48597;49.030;1.822;2023-07-28T11:54:13;100058.75;;;24.13;53.04
62544;BME280;48597;49.030;1.822;2023-07-28T11:56:46;100059.56;;;24.14;52.92
62544;BME280;48597;49.030;1.822;2023-07-28T11:59:14;100062.44;;;24.14;53.01
62544;BME280;48597;49.030;1.822;2023-07-28T12:01:57;100060.34;;;24.14;53.21
62544;BME280;48597;49.030;1.822;2023-07-28T12:04:37;100064.78;;;24.15;53.26
62544;BME280;48597;49.030;1.822;2023-07-28T12:09:55;100057.75;;;24.16;52.96
62544;BME280;48597;49.030;1.822;2023-07-28T12:12:28;100060.63;;;24.16;52.73
62544;BME280;48597;49.030;1.822;2023-07-28T12:14:58;100059.31;;;24.17;52.77
62544;BME280;48597;49.030;1.822;2023-07-28T12:17:30;100058.53;;;24.17;52.71
62544;BME280;48597;49.030;1.822;2023-07-28T12:20:06;100057.25;;;24.18;52.85
62544;BME280;48597;49.030;1.822;2023-07-28T12:22:37;100072.44;;;24.18;52.69
62544;BME280;48597;49.030;1.822;2023-07-28T12:25:03;100075.31;;;24.18;52.43
62544;BME280;48597;49.030;1.822;2023-07-28T12:27:30;100090.50;;;24.19;52.52
62544;BME280;48597;49.030;1.822;2023-07-28T12:29:55;100090.50;;;24.19;52.48
62544;BME280;48597;49.030;1.822;2023-07-28T12:32:21;100101.53;;;24.20;52.41
62544;BME280;48597;49.030;1.822;2023-07-28T12:34:48;100090.50;;;24.19;52.47
62544;BME280;48597;49.030;1.822;2023-07-28T12:37:14;100075.59;;;24.20;52.55
62544;BME280;48597;49.030;1.822;2023-07-28T12:39:39;100072.22;;;24.22;52.31
62544;BME280;48597;49.030;1.822;2023-07-28T12:42:06;100060.72;;;24.22;52.30
62544;BME280;48597;49.030;1.822;2023-07-28T12:44:32;100071.78;;;24.24;52.39
62544;BME280;48597;49.030;1.822;2023-07-28T12:46:57;100069.69;;;24.24;52.52
62544;BME280;48597;49.030;1.822;2023-07-28T12:49:23;100070.47;;;24.25;52.41
62544;BME280;48597;49.030;1.822;2023-07-28T12:51:48;100061.84;;;24.25;52.30
62544;BME280;48597;49.030;1.822;2023-07-28T12:54:14;100061.34;;;24.26;52.20
62544;BME280;48597;49.030;1.822;2023-07-28T12:56:39;100060.53;;;24.26;52.28
62544;BME280;48597;49.030;1.822;2023-07-28T12:59:04;100063.44;;;24.26;52.22
62544;BME280;48597;49.030;1.822;2023-07-28T13:01:30;100069.97;;;24.26;52.25